Time;durP1;ratioP1;P1;durP2;ratioP2;P2;SDS_P1;SDS_P2;PMS_P1;PMS_P2;Temp;Humidity;BMP_temperature;BMP_pressure;BME280_temperature;BME280_humidity;BME280_pressure;Samples;Min_cycle;Max_cycle;Signal;HPM_P1;HPM_P2
2022/08/03 00:01:01;;;;;;;1.02;0.80;;;;;;;20.25;58.19;96712.38;10324656;28;20042;-25
2022/08/03 00:06:01;;;;;;;2.70;0.90;;;;;;;20.23;57.78;96721.69;10324098;28;20034;-26
2022/08/03 00:11:03;;;;;;;2.30;1.10;;;;;;;20.20;58.13;96709.03;10326042;28;20030;-26
2022/08/03 00:16:03;;;;;;;1.35;0.80;;;;;;;20.19;57.89;96710.72;10324856;28;20308;-26
2022/08/03 00:21:04;;;;;;;2.05;0.75;;;;;;;20.13;58.31;96710.78;10320164;28;20088;-26
2022/08/03 00:26:04;;;;;;;3.97;1.30;;;;;;;20.13;57.85;96705.69;10325122;28;20133;-26
2022/08/03 00:31:05;;;;;;;1.27;0.90;;;;;;;20.15;57.79;96698.88;10322293;28;20093;-26
2022/08/03 00:36:06;;;;;;;2.13;1.20;;;;;;;20.10;58.44;96700.59;10322604;28;20040;-26
2022/08/03 00:41:06;;;;;;;1.10;1.00;;;;;;;20.18;58.73;96693.78;10318438;28;20488;-27
2022/08/03 00:46:06;;;;;;;6.40;1.50;;;;;;;20.16;58.46;96692.09;10318323;28;20307;-26
2022/08/03 00:51:07;;;;;;;1.57;1.17;;;;;;;20.20;58.34;96696.31;10321335;28;20030;-26
2022/08/03 00:56:07;;;;;;;1.35;1.25;;;;;;;20.15;58.60;96692.94;10324656;28;20034;-26
2022/08/03 01:01:08;;;;;;;1.40;1.10;;;;;;;20.14;58.75;96696.34;10323121;28;20541;-26
2022/08/03 01:06:17;;;;;;;3.10;2.80;;;;;;;20.12;58.78;96698.06;10322664;28;20088;-26
2022/08/03 01:11:22;;;;;;;3.22;1.20;;;;;;;20.12;59.08;96688.75;10324482;28;20110;-26
2022/08/03 01:17:20;;;;;;;1.52;1.30;;;;;;;20.06;59.29;96680.31;10322816;28;20129;-26
2022/08/03 01:22:50;;;;;;;2.45;1.33;;;;;;;20.10;59.43;96687.91;10269830;28;20054;-26
2022/08/03 01:28:09;;;;;;;1.60;1.30;;;;;;;20.07;59.23;96679.44;10320675;28;20623;-26
2022/08/03 01:33:23;;;;;;;1.33;1.05;;;;;;;20.14;58.98;96676.00;10322555;28;20045;-26
2022/08/03 01:38:27;;;;;;;2.90;1.20;;;;;;;20.15;58.68;96673.47;10321298;28;20061;-25
2022/08/03 01:43:29;;;;;;;1.38;1.20;;;;;;;20.19;58.94;96674.28;10324809;28;20069;-26
2022/08/03 01:48:30;;;;;;;1.95;1.48;;;;;;;20.20;58.35;96674.28;10329095;28;20041;-26
2022/08/03 01:53:33;;;;;;;3.22;1.20;;;;;;;20.27;58.83;96670.81;10330744;28;20054;-27
2022/08/03 01:58:35;;;;;;;2.50;1.60;;;;;;;20.27;58.71;96677.63;10329351;28;20246;-26
2022/08/03 02:03:39;;;;;;;1.65;1.38;;;;;;;20.23;58.72;96664.09;10330761;28;20055;-26
2022/08/03 02:08:42;;;;;;;2.33;1.63;;;;;;;20.20;58.54;96660.72;10328224;28;20045;-26
2022/08/03 02:13:44;;;;;;;3.08;1.92;;;;;;;20.20;58.54;96665.81;10327580;28;20034;-26
2022/08/03 02:18:47;;;;;;;2.83;1.60;;;;;;;20.21;58.85;96667.50;10330323;28;20042;-27
2022/08/03 02:23:47;;;;;;;2.20;2.00;;;;;;;20.17;59.30;96663.28;10327548;28;20046;-26
2022/08/03 02:28:52;;;;;;;3.42;1.63;;;;;;;20.20;59.04;96665.81;10327765;28;20412;-26
2022/08/03 02:33:57;;;;;;;2.33;1.60;;;;;;;20.19;59.19;96659.03;10327500;28;20107;-26
2022/08/03 02:38:59;;;;;;;2.53;1.58;;;;;;;20.15;59.30;96657.34;10325875;28;21938;-27
2022/08/03 02:44:02;;;;;;;2.80;1.50;;;;;;;20.19;58.91;96643.78;10325024;28;20046;-25
2022/08/03 02:49:03;;;;;;;1.55;1.40;;;;;;;20.13;59.31;96652.31;10319775;28;20034;-25
2022/08/03 02:54:07;;;;;;;1.67;1.40;;;;;;;20.13;59.45;96652.31;10325993;28;20042;-25
2022/08/03 02:59:09;;;;;;;1.85;1.50;;;;;;;20.11;59.61;96646.38;10327532;28;20505;-26
2022/08/03 03:04:10;;;;;;;1.83;1.42;;;;;;;20.13;59.66;96638.75;10329363;28;20038;-26
2022/08/03 03:09:11;;;;;;;1.45;1.35;;;;;;;20.10;59.46;96633.69;10326446;28;20164;-25
2022/08/03 03:14:13;;;;;;;1.67;1.30;;;;;;;20.11;59.65;96635.38;10329073;28;20549;-26
2022/08/03 03:19:15;;;;;;;2.13;1.65;;;;;;;20.02;59.73;96626.06;10326975;28;20112;-26
2022/08/03 03:24:16;;;;;;;2.40;1.45;;;;;;;20.14;59.68;96637.88;10325227;28;20497;-26
2022/08/03 03:29:17;;;;;;;2.88;1.50;;;;;;;20.12;59.60;96637.91;10327494;28;20034;-27
2022/08/03 03:34:18;;;;;;;2.13;1.40;;;;;;;20.12;59.92;96637.06;10324216;28;20026;-26
2022/08/03 03:39:18;;;;;;;1.80;1.55;;;;;;;20.15;59.85;96640.41;10324190;28;20030;-26
2022/08/03 03:44:19;;;;;;;2.00;1.37;;;;;;;20.13;60.16;96644.69;10327214;28;20046;-26
2022/08/03 03:49:19;;;;;;;1.50;1.15;;;;;;;20.14;60.17;96650.59;10323099;28;20042;-26
2022/08/03 03:54:20;;;;;;;1.85;1.48;;;;;;;20.13;60.45;96651.44;10324050;28;20042;-25
2022/08/03 03:59:20;;;;;;;2.05;1.65;;;;;;;20.01;61.07;96643.91;10318526;28;20096;-26
2022/08/03 04:15:17;;;;;;;2.28;1.67;;;;;;;20.01;60.73;96643.91;10294112;28;20568;-26
2022/08/03 04:20:20;;;;;;;1.80;1.70;;;;;;;20.03;60.64;96644.72;10318451;28;20034;-25
2022/08/03 04:25:24;;;;;;;2.00;1.25;;;;;;;20.04;60.89;96652.38;10313842;28;20092;-26
2022/08/03 04:30:27;;;;;;;3.75;1.77;;;;;;;20.05;60.93;96651.53;10312792;28;20458;-25
2022/08/03 04:35:31;;;;;;;2.35;2.13;;;;;;;20.14;60.75;96648.06;10285941;28;20121;-25
2022/08/03 04:40:33;;;;;;;1.95;1.52;;;;;;;20.20;60.75;96669.22;10276985;28;20042;-26
2022/08/03 04:45:35;;;;;;;2.50;1.42;;;;;;;20.19;60.80;96669.22;10277096;28;20034;-28
2022/08/03 04:50:35;;;;;;;3.38;1.65;;;;;;;20.11;61.24;96670.97;10277648;28;20633;-25
2022/08/03 04:55:38;;;;;;;2.10;1.58;;;;;;;20.17;60.94;96676.84;10276746;28;20042;-25
2022/08/03 05:00:39;;;;;;;2.87;1.67;;;;;;;20.18;61.05;96672.59;10272817;28;20038;-25
2022/08/03 05:05:39;;;;;;;2.17;1.40;;;;;;;20.21;61.07;96675.13;10270541;28;20043;-25
2022/08/03 05:10:39;;;;;;;2.03;1.83;;;;;;;20.07;61.29;96676.91;10276647;28;20030;-25
2022/08/03 05:15:43;;;;;;;3.50;1.37;;;;;;;20.10;61.48;96674.38;10276709;28;20038;-26
2022/08/03 05:20:43;;;;;;;2.15;1.70;;;;;;;20.13;61.29;96676.88;10282545;28;21718;-25
2022/08/03 05:25:44;;;;;;;1.80;1.65;;;;;;;20.22;60.99;96684.44;10285370;28;20034;-26
2022/08/03 05:30:44;;;;;;;2.70;1.80;;;;;;;20.21;61.22;96688.69;10286160;28;20034;-26
2022/08/03 05:35:44;;;;;;;1.58;1.48;;;;;;;20.30;61.24;96687.75;10293585;28;20034;-27
2022/08/03 05:40:45;;;;;;;2.10;1.70;;;;;;;20.23;61.36;96686.97;10299939;28;20496;-27
2022/08/03 05:45:45;;;;;;;1.77;1.50;;;;;;;20.40;60.96;96691.03;10295359;28;20501;-26
2022/08/03 05:50:46;;;;;;;1.30;1.20;;;;;;;20.39;61.27;96694.44;10297494;28;20029;-27
2022/08/03 05:55:46;;;;;;;1.50;1.40;;;;;;;20.47;61.18;96682.53;10296901;28;20281;-27
2022/08/03 06:00:46;;;;;;;3.07;1.90;;;;;;;20.49;61.26;96688.47;10291073;28;20058;-26
2022/08/03 06:05:47;;;;;;;2.40;1.63;;;;;;;20.65;61.04;96687.44;10294568;28;20779;-27
2022/08/03 06:10:48;;;;;;;1.93;1.50;;;;;;;20.71;61.08;96684.84;10295682;28;20289;-26
2022/08/03 06:15:48;;;;;;;5.32;2.53;;;;;;;20.73;61.31;96679.75;10296013;28;20062;-24
2022/08/03 06:20:49;;;;;;;3.27;1.80;;;;;;;20.94;60.78;96674.47;10289111;28;20027;-25
2022/08/03 06:25:49;;;;;;;1.80;1.50;;;;;;;21.00;61.05;96690.53;10293823;28;20125;-26
2022/08/03 06:30:50;;;;;;;5.00;1.70;;;;;;;21.10;60.43;96676.84;10293254;28;20631;-26
2022/08/03 06:35:50;;;;;;;3.77;1.80;;;;;;;21.23;59.92;96678.38;10293890;28;20082;-26
2022/08/03 06:40:51;;;;;;;2.85;1.50;;;;;;;21.05;61.07;96675.22;10295345;28;20050;-25
2022/08/03 06:45:51;;;;;;;2.60;1.50;;;;;;;20.95;61.73;96671.91;10288883;28;20043;-26
2022/08/03 06:50:51;;;;;;;3.37;1.40;;;;;;;20.97;61.30;96667.66;10286402;28;20048;-26
2022/08/03 06:55:52;;;;;;;2.77;1.73;;;;;;;21.24;60.79;96680.06;10292507;28;20124;-25
2022/08/03 07:00:52;;;;;;;8.63;2.23;;;;;;;21.41;60.68;96688.34;10286904;28;20628;-26
2022/08/03 07:05:52;;;;;;;1.98;1.73;;;;;;;21.50;60.57;96682.31;10284383;28;21314;-27
2022/08/03 07:10:53;;;;;;;2.27;1.90;;;;;;;21.63;60.25;96694.88;10296757;28;20038;-25
2022/08/03 07:15:53;;;;;;;2.10;1.70;;;;;;;21.65;60.04;96690.63;10283260;28;20071;-25
2022/08/03 07:20:54;;;;;;;2.87;1.63;;;;;;;21.67;60.41;96681.28;10288709;28;20692;-26
2022/08/03 07:25:54;;;;;;;6.40;2.30;;;;;;;21.65;60.51;96685.53;10291051;28;20084;-26
2022/08/03 07:30:54;;;;;;;4.97;2.13;;;;;;;21.67;60.81;96677.88;10292173;28;20530;-26
2022/08/03 07:35:55;;;;;;;5.47;2.07;;;;;;;21.66;60.49;96688.94;10290342;28;20050;-25
2022/08/03 07:40:55;;;;;;;2.72;1.90;;;;;;;21.71;60.49;96685.47;10288754;28;20586;-27
2022/08/03 07:45:55;;;;;;;6.23;2.47;;;;;;;21.74;60.71;96682.88;10284910;28;20497;-26
2022/08/03 07:50:56;;;;;;;3.13;2.30;;;;;;;21.77;60.58;96693.03;10290558;28;20060;-25
2022/08/03 07:55:56;;;;;;;6.80;2.40;;;;;;;21.77;60.65;96687.09;10291972;28;20724;-25
2022/08/03 08:00:56;;;;;;;2.43;2.20;;;;;;;21.83;60.34;96682.78;10290319;28;20503;-25
2022/08/03 08:05:57;;;;;;;3.20;2.53;;;;;;;21.81;60.68;96678.56;10313222;28;20293;-33
2022/08/03 08:10:57;;;;;;;4.73;2.27;;;;;;;21.63;61.08;96677.03;10301217;28;20026;-26
2022/08/03 08:15:58;;;;;;;5.60;2.30;;;;;;;21.72;61.36;96684.59;10274200;28;20305;-26
2022/08/03 08:21:00;;;;;;;4.93;2.25;;;;;;;21.73;61.08;96683.72;10274026;28;20038;-26
2022/08/03 08:26:00;;;;;;;7.32;2.33;;;;;;;21.53;61.02;96672.06;10278455;28;20045;-26
2022/08/03 08:31:01;;;;;;;3.55;2.15;;;;;;;21.48;60.70;96682.31;10290086;28;20054;-26
2022/08/03 08:36:01;;;;;;;8.88;2.92;;;;;;;21.53;61.66;96683.13;10282657;28;20050;-26
2022/08/03 08:41:02;;;;;;;4.77;2.17;;;;;;;21.64;61.33;96680.44;10286321;28;20073;-25
2022/08/03 08:46:04;;;;;;;3.70;2.40;;;;;;;21.71;61.70;96677.00;10289499;28;20719;-24
2022/08/03 08:51:05;;;;;;;2.55;2.20;;;;;;;21.79;61.28;96670.06;10287245;28;20043;-26
2022/08/03 08:56:09;;;;;;;2.75;2.25;;;;;;;21.75;61.06;96661.66;10287133;28;20148;-26
2022/08/03 09:01:09;;;;;;;4.68;2.15;;;;;;;21.84;61.44;96664.06;10292974;28;20049;-29
2022/08/03 09:06:09;;;;;;;5.90;2.30;;;;;;;21.87;61.32;96664.00;10289486;28;20053;-29
2022/08/03 09:11:10;;;;;;;3.07;2.20;;;;;;;21.89;61.35;96657.19;10274050;28;20668;-25
2022/08/03 09:16:14;;;;;;;3.65;2.20;;;;;;;21.90;61.46;96658.03;10266356;28;20026;-27
2022/08/03 09:21:26;;;;;;;3.45;2.15;;;;;;;21.91;61.29;96663.09;10268726;28;20037;-28
2022/08/03 09:26:28;;;;;;;6.25;1.80;;;;;;;21.96;60.94;96663.00;10275953;28;20742;-26
2022/08/03 09:31:40;;;;;;;12.10;2.40;;;;;;;21.96;61.15;96653.69;10266646;28;20041;-25
2022/08/03 09:36:48;;;;;;;6.00;3.17;;;;;;;21.99;61.33;96653.63;10277337;28;20057;-26
2022/08/03 09:42:07;;;;;;;4.00;2.17;;;;;;;22.02;61.47;96651.03;10277165;28;20121;-27
2022/08/03 09:47:12;;;;;;;3.65;2.42;;;;;;;21.88;61.74;96654.66;10270884;28;20568;-26
2022/08/03 09:52:21;;;;;;;3.40;2.60;;;;;;;21.93;61.61;96651.19;10278615;28;20122;-27
2022/08/03 09:57:25;;;;;;;5.60;2.35;;;;;;;21.89;61.44;96646.97;10321447;28;20042;-26
2022/08/03 10:02:26;;;;;;;7.88;2.67;;;;;;;21.95;61.61;96644.34;10251442;28;20093;-27
2022/08/03 10:07:27;;;;;;;9.85;3.00;;;;;;;21.98;61.59;96644.28;10279406;28;20116;-27
2022/08/03 10:12:28;;;;;;;6.13;2.97;;;;;;;22.00;61.59;96645.13;10276850;28;20038;-26
2022/08/03 10:17:28;;;;;;;5.68;3.15;;;;;;;22.00;61.47;96636.63;10274801;28;20297;-26
2022/08/03 10:22:32;;;;;;;7.60;2.87;;;;;;;22.02;61.43;96633.19;10261843;28;21452;-25
2022/08/03 10:27:38;;;;;;;3.58;2.58;;;;;;;22.06;61.17;96637.38;10268816;28;20085;-26
2022/08/03 10:32:54;;;;;;;7.82;2.40;;;;;;;21.99;60.20;96632.41;10273960;28;20126;-25
2022/08/03 10:38:06;;;;;;;2.92;2.20;;;;;;;21.88;60.55;96630.00;10263630;28;20745;-26
2022/08/03 10:43:33;;;;;;;5.93;2.58;;;;;;;21.83;61.24;96626.69;10267117;28;20046;-26
2022/08/03 10:48:34;;;;;;;3.90;2.05;;;;;;;21.79;61.39;96625.03;10267219;28;20050;-27
2022/08/03 10:53:43;;;;;;;2.42;2.22;;;;;;;21.78;61.51;96627.59;10261570;28;20050;-27
2022/08/03 10:58:48;;;;;;;3.50;2.42;;;;;;;21.76;61.47;96625.09;10264588;28;20046;-25
2022/08/03 11:03:54;;;;;;;3.30;2.20;;;;;;;21.76;61.57;96619.16;10265491;28;20041;-25
2022/08/03 11:09:10;;;;;;;3.28;2.50;;;;;;;21.68;61.53;96610.75;10265058;28;20498;-25
2022/08/03 11:14:16;;;;;;;6.93;3.45;;;;;;;21.79;61.02;96614.00;10266715;28;20046;-26
2022/08/03 11:19:21;;;;;;;;;;;;;;;21.88;60.70;96609.59;10269277;28;20069;-25
2022/08/03 11:24:38;;;;;;;4.63;3.03;;;;;;;21.83;61.04;96606.31;10270631;28;21452;-25
2022/08/03 11:30:00;;;;;;;4.53;2.40;;;;;;;21.79;60.92;96598.69;10275985;28;20065;-26
2022/08/03 11:35:09;;;;;;;3.38;2.00;;;;;;;21.78;61.31;96602.97;10279732;28;20136;-27
2022/08/03 11:40:41;;;;;;;3.60;2.15;;;;;;;21.69;61.65;96608.22;10276665;28;20616;-26
2022/08/03 11:45:58;;;;;;;2.92;1.90;;;;;;;21.78;61.55;96609.75;10280139;28;20125;-27
2022/08/03 11:51:00;;;;;;;2.88;2.15;;;;;;;21.76;61.61;96607.25;10276834;28;20045;-25
2022/08/03 11:56:01;;;;;;;2.35;2.15;;;;;;;21.78;61.66;96599.56;10278187;28;20038;-26
2022/08/03 12:01:04;;;;;;;3.58;2.47;;;;;;;21.79;61.92;96602.09;10276557;28;20053;-26
2022/08/03 12:06:12;;;;;;;2.97;2.13;;;;;;;21.90;61.34;96596.84;10275280;28;20489;-26
2022/08/03 12:11:14;;;;;;;2.75;2.40;;;;;;;21.92;60.39;96593.41;10269232;28;20034;-24
2022/08/03 12:16:23;;;;;;;3.47;2.20;;;;;;;21.84;61.33;96597.78;10276891;28;20427;-25
2022/08/03 12:21:24;;;;;;;3.22;2.58;;;;;;;21.80;61.58;96588.50;10271326;28;20053;-24
2022/08/03 12:26:25;;;;;;;3.35;2.53;;;;;;;21.79;61.70;96589.34;10275782;28;20053;-25
2022/08/03 12:31:25;;;;;;;3.70;2.42;;;;;;;21.76;62.00;96579.22;10261499;28;21200;-25
2022/08/03 12:36:26;;;;;;;3.05;2.45;;;;;;;21.70;61.86;96576.75;10262127;28;20049;-25
2022/08/03 12:41:32;;;;;;;2.30;1.98;;;;;;;21.59;61.59;96575.19;10268238;28;20031;-25
2022/08/03 12:46:35;;;;;;;3.53;2.20;;;;;;;21.52;61.32;96564.25;10273246;28;20041;-25
2022/08/03 12:51:56;;;;;;;5.50;2.45;;;;;;;21.67;61.63;96564.06;10271115;28;20293;-26
2022/08/03 12:57:08;;;;;;;8.25;2.60;;;;;;;21.83;61.68;96562.13;10273208;28;20446;-24
2022/08/03 13:02:20;;;;;;;4.20;2.45;;;;;;;21.77;60.43;96554.56;10273948;28;20580;-25
2022/08/03 13:07:21;;;;;;;3.50;2.28;;;;;;;21.64;61.42;96558.16;10273447;28;20245;-25
2022/08/03 13:12:31;;;;;;;4.15;2.40;;;;;;;21.53;61.24;96554.91;10272495;28;20034;-24
2022/08/03 13:17:31;;;;;;;3.58;2.60;;;;;;;21.58;61.79;96548.91;10270017;28;20096;-25
2022/08/03 13:22:32;;;;;;;4.23;2.07;;;;;;;21.44;60.99;96553.34;10272655;28;20565;-25
2022/08/03 13:27:33;;;;;;;3.83;2.50;;;;;;;21.53;61.91;96543.00;10273996;28;20109;-25
2022/08/03 13:32:33;;;;;;;4.57;2.67;;;;;;;21.51;61.28;96547.28;10275973;28;20030;-24
2022/08/03 13:37:34;;;;;;;5.97;2.60;;;;;;;21.49;61.04;96538.81;10268578;28;20071;-25
2022/08/03 13:42:35;;;;;;;3.28;2.28;;;;;;;21.67;61.42;96543.69;10326478;28;20046;-25
2022/08/03 13:47:36;;;;;;;3.95;2.60;;;;;;;21.83;61.26;96534.09;10325993;28;20169;-25
2022/08/03 13:52:37;;;;;;;3.08;2.05;;;;;;;21.74;60.80;96532.50;10332008;28;20683;-24
2022/08/03 13:57:37;;;;;;;5.72;3.20;;;;;;;21.69;61.73;96536.00;10332669;28;20030;-26
2022/08/03 14:02:37;;;;;;;7.47;3.13;;;;;;;21.63;61.73;96536.09;10331287;28;20161;-24
2022/08/03 14:07:38;;;;;;;4.73;2.73;;;;;;;21.57;61.25;96531.91;10331430;28;20041;-24
2022/08/03 14:12:38;;;;;;;6.67;3.17;;;;;;;21.57;61.81;96526.81;10330626;28;20300;-25
2022/08/03 14:17:39;;;;;;;4.57;3.00;;;;;;;21.56;61.87;96514.09;10329965;28;20042;-25
2022/08/03 14:22:39;;;;;;;4.95;3.03;;;;;;;21.59;61.64;96521.69;10326128;28;20050;-26
2022/08/03 14:27:40;;;;;;;5.83;2.47;;;;;;;21.53;61.15;96525.19;10329629;28;20620;-26
2022/08/03 14:32:40;;;;;;;3.10;2.30;;;;;;;21.69;61.74;96519.03;10327226;28;20038;-26
2022/08/03 14:37:40;;;;;;;2.95;2.55;;;;;;;21.84;61.60;96523.88;10230624;28;20053;-28
2022/08/03 14:42:41;;;;;;;7.43;2.03;;;;;;;21.78;60.88;96516.31;10235126;28;20042;-27
2022/08/03 14:47:41;;;;;;;4.90;2.20;;;;;;;21.70;61.25;96513.06;10236052;28;20065;-27
2022/08/03 14:52:41;;;;;;;2.60;2.20;;;;;;;21.57;61.10;96506.41;10246605;28;20045;-27
2022/08/03 14:57:42;;;;;;;3.27;1.83;;;;;;;21.54;60.68;96500.53;10276907;28;20034;-26
2022/08/03 15:02:42;;;;;;;4.10;1.97;;;;;;;21.51;60.85;96496.34;10278239;28;20297;-28
2022/08/03 15:07:42;;;;;;;4.73;1.90;;;;;;;21.54;61.04;96497.97;10275493;28;20547;-28
2022/08/03 15:12:43;;;;;;;3.63;2.10;;;;;;;21.49;61.00;96490.41;10283036;28;20080;-29
2022/08/03 15:17:43;;;;;;;2.83;1.95;;;;;;;21.51;61.49;96490.41;10277562;28;20042;-26
2022/08/03 15:22:44;;;;;;;5.50;1.70;;;;;;;21.64;62.02;96487.63;10266881;28;20034;-27
2022/08/03 15:27:44;;;;;;;2.33;1.73;;;;;;;21.83;61.10;96478.88;10269476;28;20031;-26
2022/08/03 15:32:44;;;;;;;1.67;1.57;;;;;;;21.82;60.76;96477.16;10267744;28;20042;-28
2022/08/03 15:37:45;;;;;;;3.50;1.80;;;;;;;21.64;61.37;96467.25;10269032;28;20053;-28
2022/08/03 15:42:45;;;;;;;2.47;1.60;;;;;;;21.59;60.93;96458.84;10270146;28;20034;-28
2022/08/03 15:47:45;;;;;;;2.20;1.53;;;;;;;21.51;60.99;96453.03;10265095;28;20320;-27
2022/08/03 15:52:46;;;;;;;3.13;1.37;;;;;;;21.51;60.83;96455.59;10275715;28;20053;-27
2022/08/03 15:57:46;;;;;;;1.87;1.70;;;;;;;21.50;61.02;96453.06;10271982;28;20332;-27
2022/08/03 16:02:47;;;;;;;2.37;1.67;;;;;;;21.47;60.81;96443.75;10268105;28;20524;-28
2022/08/03 16:07:47;;;;;;;2.80;1.60;;;;;;;21.45;60.93;96440.41;10263210;28;20297;-28
2022/08/03 16:12:47;;;;;;;3.80;2.00;;;;;;;21.61;62.43;96431.63;10267798;28;20037;-27
2022/08/03 16:17:48;;;;;;;3.60;2.05;;;;;;;21.83;61.37;96439.78;10272271;28;20308;-28
2022/08/03 16:22:48;;;;;;;2.00;1.37;;;;;;;21.87;60.47;96443.94;10269170;28;20030;-27
2022/08/03 16:27:49;;;;;;;2.38;2.15;;;;;;;21.70;61.30;96435.75;10271845;28;20077;-27
2022/08/03 16:32:49;;;;;;;3.35;1.70;;;;;;;21.57;61.02;96419.81;10268867;28;20074;-27
2022/08/03 16:37:50;;;;;;;2.13;1.43;;;;;;;21.55;60.92;96436.00;10273994;28;20066;-27
2022/08/03 16:42:50;;;;;;;2.33;1.73;;;;;;;21.45;60.90;96424.25;10267359;28;20050;-27
2022/08/03 16:47:50;;;;;;;1.50;1.40;;;;;;;21.62;61.87;96428.22;10261999;28;20496;-26
2022/08/03 16:52:51;;;;;;;4.10;2.13;;;;;;;21.54;62.77;96419.00;10266135;28;20584;-27
2022/08/03 16:57:51;;;;;;;4.47;2.10;;;;;;;21.65;62.70;96435.00;10262282;28;20546;-26
2022/08/03 17:02:58;;;;;;;3.40;1.97;;;;;;;21.89;62.62;96430.31;10259378;28;20054;-26
2022/08/03 17:07:59;;;;;;;5.53;1.83;;;;;;;21.96;61.56;96431.88;10259420;28;20034;-27
2022/08/03 17:13:00;;;;;;;3.13;2.15;;;;;;;21.90;63.20;96429.44;10264382;28;20066;-26
2022/08/03 17:18:06;;;;;;;6.33;2.00;;;;;;;21.70;61.54;96420.47;10272205;28;20034;-28
2022/08/03 17:23:17;;;;;;;7.05;2.30;;;;;;;21.89;63.54;96432.88;10278860;28;20471;-26
2022/08/03 17:28:18;;;;;;;3.58;2.55;;;;;;;21.88;63.83;96436.28;10272019;28;20121;-27
2022/08/03 17:33:19;;;;;;;5.55;2.25;;;;;;;21.89;64.03;96427.75;10267945;28;20041;-26
2022/08/03 17:38:21;;;;;;;5.28;2.53;;;;;;;21.86;64.03;96425.28;10269242;28;20040;-27
2022/08/03 17:43:23;;;;;;;5.50;2.60;;;;;;;21.88;64.23;96440.56;10271417;28;20084;-26
2022/08/03 17:48:24;;;;;;;5.60;2.20;;;;;;;21.95;62.97;96430.22;10313684;28;20046;-26
2022/08/03 17:53:35;;;;;;;2.83;2.00;;;;;;;22.11;63.07;96439.25;10318574;28;20043;-26
2022/08/03 17:58:54;;;;;;;9.73;2.10;;;;;;;22.04;62.34;96437.69;10317487;28;20092;-26
2022/08/03 18:04:01;;;;;;;8.90;2.70;;;;;;;21.93;63.46;96434.50;10319356;28;20413;-28
2022/08/03 18:09:03;;;;;;;5.97;2.58;;;;;;;21.93;64.33;96444.69;10318402;28;20089;-25
2022/08/03 18:14:12;;;;;;;6.07;2.85;;;;;;;21.92;64.34;96448.13;10320014;28;20069;-25
2022/08/03 18:19:13;;;;;;;6.65;3.03;;;;;;;21.84;64.14;96426.16;10314136;28;20038;-27
2022/08/03 18:24:17;;;;;;;5.60;2.85;;;;;;;21.91;64.29;96450.69;10311844;28;20409;-26
2022/08/03 18:29:18;;;;;;;5.22;2.67;;;;;;;21.91;64.34;96456.59;10322239;28;20045;-26
2022/08/03 18:34:19;;;;;;;5.15;2.53;;;;;;;21.92;64.34;96453.22;10325903;28;20624;-26
2022/08/03 18:39:20;;;;;;;3.78;1.92;;;;;;;22.02;62.33;96453.88;10324916;28;20068;-26
2022/08/03 18:44:20;;;;;;;2.83;2.17;;;;;;;22.17;62.65;96458.69;10301112;28;20461;-25
2022/08/03 18:49:41;;;;;;;2.50;1.80;;;;;;;22.02;61.68;96464.94;10315649;28;20420;-26
2022/08/03 18:54:58;;;;;;;2.78;1.80;;;;;;;21.83;62.42;96467.81;10323418;28;20093;-27
2022/08/03 19:00:08;;;;;;;3.67;2.70;;;;;;;21.70;61.64;96464.63;10317682;28;20042;-26
2022/08/03 19:05:09;;;;;;;2.05;1.70;;;;;;;21.66;61.48;96460.44;10319809;28;20034;-26
2022/08/03 19:10:10;;;;;;;5.38;2.38;;;;;;;21.65;61.57;96465.59;10319197;28;20960;-26
2022/08/03 19:15:12;;;;;;;1.58;1.40;;;;;;;21.63;61.43;96480.84;10323445;28;20068;-26
2022/08/03 19:20:13;;;;;;;1.67;1.50;;;;;;;21.61;61.15;96474.94;10320234;28;20085;-26
2022/08/03 19:25:15;;;;;;;1.92;1.70;;;;;;;21.77;62.13;96476.41;10317393;28;20161;-26
2022/08/03 19:30:35;;;;;;;4.40;2.42;;;;;;;22.01;62.84;96488.75;10322859;28;20045;-26
2022/08/03 19:35:40;;;;;;;1.98;1.77;;;;;;;21.89;61.46;96488.94;10319537;28;20045;-26
2022/08/03 19:40:47;;;;;;;1.80;1.60;;;;;;;21.76;61.69;96497.66;10321705;28;20132;-27
2022/08/03 19:45:50;;;;;;;6.05;2.20;;;;;;;21.70;61.35;96492.66;10321168;28;20077;-25
2022/08/03 19:50:53;;;;;;;3.42;1.70;;;;;;;21.67;61.26;96497.81;10321083;28;20050;-26
2022/08/03 19:55:56;;;;;;;2.45;1.77;;;;;;;21.67;61.32;96496.97;10322456;28;20044;-26
2022/08/03 20:00:56;;;;;;;1.65;1.50;;;;;;;21.65;61.00;96496.97;10317566;28;20428;-26
2022/08/03 20:05:57;;;;;;;3.25;2.30;;;;;;;21.66;61.39;96491.00;10316035;28;20033;-25
2022/08/03 20:10:59;;;;;;;1.88;1.60;;;;;;;21.66;61.60;96493.56;10322773;28;20092;-26
2022/08/03 20:15:59;;;;;;;1.80;1.63;;;;;;;21.80;62.54;96489.09;10323249;28;20030;-26
2022/08/03 20:21:05;;;;;;;3.67;1.70;;;;;;;21.99;62.25;96495.56;10325028;28;20497;-26
2022/08/03 20:26:07;;;;;;;1.50;1.40;;;;;;;21.94;61.31;96487.16;10325341;28;20034;-25
2022/08/03 20:31:08;;;;;;;2.63;1.75;;;;;;;21.83;61.82;96486.53;10324058;28;20076;-26
2022/08/03 20:36:08;;;;;;;4.40;1.73;;;;;;;21.76;61.40;96492.56;10322848;28;20041;-26
2022/08/03 20:41:09;;;;;;;3.03;2.23;;;;;;;21.72;61.28;96490.09;10325893;28;20034;-25
2022/08/03 20:46:09;;;;;;;4.40;2.40;;;;;;;21.71;61.11;96502.00;10322652;28;20046;-26
2022/08/03 20:51:10;;;;;;;3.03;2.33;;;;;;;21.80;63.46;96486.53;10315992;28;20521;-26
2022/08/03 20:56:12;;;;;;;4.03;2.47;;;;;;;21.89;64.29;96488.94;10324643;28;20058;-26
2022/08/03 21:01:12;;;;;;;3.45;2.25;;;;;;;21.98;63.91;96490.50;10320088;28;20458;-25
2022/08/03 21:06:20;;;;;;;3.80;2.40;;;;;;;22.00;63.66;96492.16;10322253;28;20038;-26
2022/08/03 21:11:23;;;;;;;5.47;2.20;;;;;;;22.13;61.72;96493.63;10325282;28;20041;-25
2022/08/03 21:16:27;;;;;;;2.55;2.10;;;;;;;22.20;60.95;96484.13;10325677;28;20043;-26
2022/08/03 21:21:30;;;;;;;2.83;1.88;;;;;;;22.13;61.44;96488.50;10324510;28;20515;-25
2022/08/03 21:26:36;;;;;;;2.28;2.08;;;;;;;22.06;61.73;96476.75;10326556;28;20500;-25
2022/08/03 21:31:38;;;;;;;3.95;2.55;;;;;;;22.07;61.61;96478.41;10323243;28;20030;-26
2022/08/03 21:36:38;;;;;;;2.95;2.28;;;;;;;22.08;61.53;96482.66;10323999;28;20131;-25
2022/08/03 21:41:39;;;;;;;2.27;2.07;;;;;;;21.96;61.29;96475.22;10324119;28;20038;-26
2022/08/03 21:46:40;;;;;;;3.35;2.35;;;;;;;21.81;61.14;96472.09;10319809;28;20130;-25
2022/08/03 21:51:41;;;;;;;3.33;2.40;;;;;;;21.78;61.07;96474.69;10321031;28;20092;-26
2022/08/03 21:56:45;;;;;;;4.47;2.28;;;;;;;21.77;60.96;96484.06;10321933;28;20038;-26
2022/08/03 22:01:47;;;;;;;2.28;1.88;;;;;;;21.87;60.95;96475.38;10324207;28;20393;-26
2022/08/03 22:06:47;;;;;;;2.40;2.20;;;;;;;22.06;60.53;96476.75;10329051;28;20065;-26
2022/08/03 22:11:52;;;;;;;1.40;1.30;;;;;;;22.07;59.74;96488.63;10331308;28;20062;-26
2022/08/03 22:16:53;;;;;;;2.55;1.40;;;;;;;21.87;60.46;96480.50;10325947;28;20034;-26
2022/08/03 22:21:54;;;;;;;2.95;2.00;;;;;;;21.81;60.76;96484.84;10328272;28;20040;-26
2022/08/03 22:32:14;;;;;;;2.05;1.85;;;;;;;21.78;60.54;96485.75;10328802;28;20503;-25
2022/08/03 22:37:16;;;;;;;2.67;2.20;;;;;;;21.76;60.70;96492.56;10328716;28;20030;-26
2022/08/03 22:42:19;;;;;;;2.10;1.90;;;;;;;21.77;60.47;96493.41;10330072;28;20070;-26
2022/08/03 22:47:21;;;;;;;4.22;2.30;;;;;;;21.76;60.48;96492.56;10328282;28;20077;-25
2022/08/03 22:52:22;;;;;;;2.90;2.70;;;;;;;21.75;60.67;96496.00;10327531;28;20034;-26
2022/08/03 22:57:22;;;;;;;2.20;1.90;;;;;;;21.93;59.85;96490.59;10329248;28;20042;-26
2022/08/03 23:02:23;;;;;;;1.98;1.80;;;;;;;22.07;59.12;96488.63;10323043;28;20042;-26
2022/08/03 23:07:31;;;;;;;1.88;1.65;;;;;;;21.96;59.65;96499.88;10326602;28;20030;-25
2022/08/03 23:12:34;;;;;;;1.42;1.33;;;;;;;21.85;60.11;96501.75;10328708;28;20026;-26
2022/08/03 23:17:43;;;;;;;2.35;2.15;;;;;;;21.80;60.31;96494.19;10322795;28;20041;-25
2022/08/03 23:22:45;;;;;;;1.90;1.70;;;;;;;21.78;60.19;96506.13;10326350;28;20078;-25
2022/08/03 23:27:48;;;;;;;2.95;1.73;;;;;;;21.77;60.21;96499.34;10325097;28;20514;-26
2022/08/03 23:32:49;;;;;;;1.83;1.73;;;;;;;21.75;60.26;96501.09;10324803;28;20042;-26
2022/08/03 23:37:54;;;;;;;4.05;2.50;;;;;;;21.74;60.36;96494.28;10325176;28;20038;-26
2022/08/03 23:42:56;;;;;;;1.80;1.70;;;;;;;21.74;60.28;96494.28;10328021;28;20035;-26